sensor_id;sensor_type;location;lat;lon;timestamp;P1;durP1;ratioP1;P2;durP2;ratioP2
61681;SDS011;47577;43.610;25.010;2022-08-19T00:00:06;9.98;;;8.93;;
61681;SDS011;47577;43.610;25.010;2022-08-19T00:02:34;10.80;;;8.50;;
61681;SDS011;47577;43.610;25.010;2022-08-19T00:05:00;12.63;;;7.50;;
61681;SDS011;47577;43.610;25.010;2022-08-19T00:07:27;12.98;;;7.70;;
61681;SDS011;47577;43.610;25.010;2022-08-19T00:09:52;9.68;;;8.07;;
61681;SDS011;47577;43.610;25.010;2022-08-19T00:12:18;9.40;;;8.18;;
61681;SDS011;47577;43.610;25.010;2022-08-19T00:14:44;12.50;;;7.90;;
61681;SDS011;47577;43.610;25.010;2022-08-19T00:17:10;9.68;;;7.90;;
61681;SDS011;47577;43.610;25.010;2022-08-19T00:19:36;9.02;;;8.13;;
61681;SDS011;47577;43.610;25.010;2022-08-19T00:22:02;9.88;;;8.65;;
61681;SDS011;47577;43.610;25.010;2022-08-19T00:24:28;11.87;;;7.93;;
61681;SDS011;47577;43.610;25.010;2022-08-19T00:26:55;11.05;;;8.32;;
61681;SDS011;47577;43.610;25.010;2022-08-19T00:29:22;9.32;;;8.23;;
61681;SDS011;47577;43.610;25.010;2022-08-19T00:31:49;10.52;;;8.93;;
61681;SDS011;47577;43.610;25.010;2022-08-19T00:34:19;11.38;;;8.30;;
61681;SDS011;47577;43.610;25.010;2022-08-19T00:36:46;10.80;;;8.52;;
61681;SDS011;47577;43.610;25.010;2022-08-19T00:39:13;11.23;;;8.25;;
61681;SDS011;47577;43.610;25.010;2022-08-19T00:41:40;17.25;;;9.20;;
61681;SDS011;47577;43.610;25.010;2022-08-19T00:44:07;10.20;;;8.52;;
61681;SDS011;47577;43.610;25.010;2022-08-19T00:46:47;12.98;;;8.43;;
61681;SDS011;47577;43.610;25.010;2022-08-19T00:51:42;11.43;;;8.32;;
61681;SDS011;47577;43.610;25.010;2022-08-19T00:54:11;12.02;;;8.73;;
61681;SDS011;47577;43.610;25.010;2022-08-19T00:56:37;12.25;;;9.05;;
61681;SDS011;47577;43.610;25.010;2022-08-19T00:59:03;10.18;;;8.93;;
61681;SDS011;47577;43.610;25.010;2022-08-19T01:01:35;9.15;;;8.02;;
61681;SDS011;47577;43.610;25.010;2022-08-19T01:04:02;14.70;;;8.10;;
61681;SDS011;47577;43.610;25.010;2022-08-19T01:06:28;9.98;;;8.07;;
61681;SDS011;47577;43.610;25.010;2022-08-19T01:08:57;11.05;;;8.75;;
61681;SDS011;47577;43.610;25.010;2022-08-19T01:11:23;13.47;;;8.87;;
61681;SDS011;47577;43.610;25.010;2022-08-19T01:13:49;10.75;;;8.38;;
61681;SDS011;47577;43.610;25.010;2022-08-19T01:16:18;10.13;;;7.60;;
61681;SDS011;47577;43.610;25.010;2022-08-19T01:18:45;19.67;;;8.98;;
61681;SDS011;47577;43.610;25.010;2022-08-19T01:21:13;9.27;;;8.13;;
61681;SDS011;47577;43.610;25.010;2022-08-19T01:23:47;9.32;;;7.93;;
61681;SDS011;47577;43.610;25.010;2022-08-19T01:26:17;11.48;;;8.65;;
61681;SDS011;47577;43.610;25.010;2022-08-19T01:28:47;11.63;;;8.77;;
61681;SDS011;47577;43.610;25.010;2022-08-19T01:31:19;12.63;;;9.48;;
61681;SDS011;47577;43.610;25.010;2022-08-19T01:33:47;9.15;;;8.23;;
61681;SDS011;47577;43.610;25.010;2022-08-19T01:36:14;8.82;;;7.93;;
61681;SDS011;47577;43.610;25.010;2022-08-19T01:38:47;10.10;;;8.05;;
61681;SDS011;47577;43.610;25.010;2022-08-19T01:41:14;11.65;;;8.73;;
61681;SDS011;47577;43.610;25.010;2022-08-19T01:43:42;11.80;;;8.88;;
61681;SDS011;47577;43.610;25.010;2022-08-19T01:46:07;8.80;;;8.00;;
61681;SDS011;47577;43.610;25.010;2022-08-19T01:48:36;14.40;;;8.15;;
61681;SDS011;47577;43.610;25.010;2022-08-19T01:51:04;11.55;;;7.18;;
61681;SDS011;47577;43.610;25.010;2022-08-19T01:53:31;10.20;;;7.95;;
61681;SDS011;47577;43.610;25.010;2022-08-19T01:58:24;11.43;;;7.57;;
61681;SDS011;47577;43.610;25.010;2022-08-19T02:01:01;12.70;;;7.90;;
61681;SDS011;47577;43.610;25.010;2022-08-19T02:03:27;8.30;;;7.45;;
61681;SDS011;47577;43.610;25.010;2022-08-19T02:05:55;8.27;;;7.38;;
61681;SDS011;47577;43.610;25.010;2022-08-19T02:08:25;9.00;;;7.43;;
61681;SDS011;47577;43.610;25.010;2022-08-19T02:10:52;8.77;;;7.88;;
61681;SDS011;47577;43.610;25.010;2022-08-19T02:13:18;11.13;;;8.48;;
61681;SDS011;47577;43.610;25.010;2022-08-19T02:15:45;8.40;;;7.57;;
61681;SDS011;47577;43.610;25.010;2022-08-19T02:18:10;9.75;;;8.55;;
61681;SDS011;47577;43.610;25.010;2022-08-19T02:20:37;10.87;;;7.70;;
61681;SDS011;47577;43.610;25.010;2022-08-19T02:23:05;9.65;;;7.75;;
61681;SDS011;47577;43.610;25.010;2022-08-19T02:25:31;11.30;;;7.13;;
61681;SDS011;47577;43.610;25.010;2022-08-19T02:27:56;9.88;;;7.63;;
61681;SDS011;47577;43.610;25.010;2022-08-19T02:30:22;9.10;;;7.20;;
61681;SDS011;47577;43.610;25.010;2022-08-19T02:35:15;10.73;;;7.63;;
61681;SDS011;47577;43.610;25.010;2022-08-19T02:37:41;10.38;;;7.20;;
61681;SDS011;47577;43.610;25.010;2022-08-19T02:40:27;8.68;;;7.10;;
61681;SDS011;47577;43.610;25.010;2022-08-19T02:42:53;8.35;;;7.40;;
61681;SDS011;47577;43.610;25.010;2022-08-19T02:45:19;11.55;;;7.40;;
61681;SDS011;47577;43.610;25.010;2022-08-19T02:47:45;11.00;;;8.05;;
61681;SDS011;47577;43.610;25.010;2022-08-19T02:50:11;9.13;;;7.55;;
61681;SDS011;47577;43.610;25.010;2022-08-19T02:52:37;12.32;;;7.72;;
61681;SDS011;47577;43.610;25.010;2022-08-19T02:55:03;8.93;;;6.68;;
61681;SDS011;47577;43.610;25.010;2022-08-19T02:57:30;9.30;;;7.30;;
61681;SDS011;47577;43.610;25.010;2022-08-19T02:59:56;8.63;;;7.05;;
61681;SDS011;47577;43.610;25.010;2022-08-19T03:02:22;9.48;;;7.22;;
61681;SDS011;47577;43.610;25.010;2022-08-19T03:04:48;10.10;;;7.20;;
61681;SDS011;47577;43.610;25.010;2022-08-19T03:07:15;10.30;;;7.27;;
61681;SDS011;47577;43.610;25.010;2022-08-19T03:09:41;14.02;;;7.80;;
61681;SDS011;47577;43.610;25.010;2022-08-19T03:12:08;8.82;;;6.85;;
61681;SDS011;47577;43.610;25.010;2022-08-19T03:14:34;11.43;;;7.37;;
61681;SDS011;47577;43.610;25.010;2022-08-19T03:17:00;10.13;;;7.03;;
61681;SDS011;47577;43.610;25.010;2022-08-19T03:19:26;11.23;;;8.00;;
61681;SDS011;47577;43.610;25.010;2022-08-19T03:21:52;8.27;;;7.00;;
61681;SDS011;47577;43.610;25.010;2022-08-19T03:24:19;10.43;;;6.80;;
61681;SDS011;47577;43.610;25.010;2022-08-19T03:26:49;12.80;;;6.83;;
61681;SDS011;47577;43.610;25.010;2022-08-19T03:29:23;8.38;;;7.45;;
61681;SDS011;47577;43.610;25.010;2022-08-19T03:31:49;10.70;;;7.07;;
61681;SDS011;47577;43.610;25.010;2022-08-19T03:34:27;8.98;;;7.22;;
61681;SDS011;47577;43.610;25.010;2022-08-19T03:36:55;9.88;;;7.13;;
61681;SDS011;47577;43.610;25.010;2022-08-19T03:39:23;9.13;;;7.45;;
61681;SDS011;47577;43.610;25.010;2022-08-19T03:41:50;8.02;;;6.53;;
61681;SDS011;47577;43.610;25.010;2022-08-19T03:44:19;8.73;;;6.72;;
61681;SDS011;47577;43.610;25.010;2022-08-19T03:46:51;11.15;;;7.47;;
61681;SDS011;47577;43.610;25.010;2022-08-19T03:49:20;8.25;;;6.78;;
61681;SDS011;47577;43.610;25.010;2022-08-19T03:51:47;10.90;;;7.22;;
61681;SDS011;47577;43.610;25.010;2022-08-19T03:54:14;7.80;;;6.97;;
61681;SDS011;47577;43.610;25.010;2022-08-19T03:56:42;11.13;;;7.40;;
61681;SDS011;47577;43.610;25.010;2022-08-19T03:59:09;9.88;;;7.38;;
61681;SDS011;47577;43.610;25.010;2022-08-19T04:01:38;10.57;;;7.35;;
61681;SDS011;47577;43.610;25.010;2022-08-19T04:04:04;9.85;;;7.00;;
61681;SDS011;47577;43.610;25.010;2022-08-19T04:06:31;8.73;;;7.07;;
61681;SDS011;47577;43.610;25.010;2022-08-19T04:09:00;11.07;;;7.03;;
61681;SDS011;47577;43.610;25.010;2022-08-19T04:11:29;9.48;;;6.88;;
61681;SDS011;47577;43.610;25.010;2022-08-19T04:14:20;10.65;;;7.65;;
61681;SDS011;47577;43.610;25.010;2022-08-19T04:16:47;8.95;;;6.85;;
61681;SDS011;47577;43.610;25.010;2022-08-19T04:19:14;10.80;;;7.80;;
61681;SDS011;47577;43.610;25.010;2022-08-19T04:21:43;11.15;;;7.65;;
61681;SDS011;47577;43.610;25.010;2022-08-19T04:24:10;12.98;;;7.63;;
61681;SDS011;47577;43.610;25.010;2022-08-19T04:26:36;10.13;;;7.22;;
61681;SDS011;47577;43.610;25.010;2022-08-19T04:29:36;9.57;;;6.43;;
61681;SDS011;47577;43.610;25.010;2022-08-19T04:31:55;8.05;;;7.25;;
61681;SDS011;47577;43.610;25.010;2022-08-19T04:34:23;8.80;;;7.45;;
61681;SDS011;47577;43.610;25.010;2022-08-19T04:36:51;7.72;;;6.93;;
61681;SDS011;47577;43.610;25.010;2022-08-19T04:39:22;10.00;;;6.90;;
61681;SDS011;47577;43.610;25.010;2022-08-19T04:42:10;6.90;;;6.20;;
61681;SDS011;47577;43.610;25.010;2022-08-19T04:44:54;7.00;;;6.40;;
61681;SDS011;47577;43.610;25.010;2022-08-19T04:47:20;8.63;;;6.40;;
61681;SDS011;47577;43.610;25.010;2022-08-19T04:49:45;11.32;;;6.78;;
61681;SDS011;47577;43.610;25.010;2022-08-19T04:52:11;10.35;;;6.28;;
61681;SDS011;47577;43.610;25.010;2022-08-19T04:54:37;10.23;;;7.05;;
61681;SDS011;47577;43.610;25.010;2022-08-19T04:57:02;7.00;;;6.05;;
61681;SDS011;47577;43.610;25.010;2022-08-19T04:59:31;8.65;;;6.00;;
61681;SDS011;47577;43.610;25.010;2022-08-19T05:01:57;8.20;;;6.30;;
61681;SDS011;47577;43.610;25.010;2022-08-19T05:04:23;7.80;;;6.47;;
61681;SDS011;47577;43.610;25.010;2022-08-19T05:06:48;7.10;;;5.88;;
61681;SDS011;47577;43.610;25.010;2022-08-19T05:09:17;8.93;;;6.20;;
61681;SDS011;47577;43.610;25.010;2022-08-19T05:11:43;7.60;;;5.90;;
61681;SDS011;47577;43.610;25.010;2022-08-19T05:14:09;7.60;;;6.68;;
61681;SDS011;47577;43.610;25.010;2022-08-19T05:16:37;8.52;;;6.03;;
61681;SDS011;47577;43.610;25.010;2022-08-19T05:19:03;9.38;;;6.55;;
61681;SDS011;47577;43.610;25.010;2022-08-19T05:21:47;7.97;;;6.63;;
61681;SDS011;47577;43.610;25.010;2022-08-19T05:24:32;13.20;;;7.13;;
61681;SDS011;47577;43.610;25.010;2022-08-19T05:27:00;7.85;;;6.97;;
61681;SDS011;47577;43.610;25.010;2022-08-19T05:29:28;10.30;;;7.20;;
61681;SDS011;47577;43.610;25.010;2022-08-19T05:34:21;14.53;;;6.73;;
61681;SDS011;47577;43.610;25.010;2022-08-19T05:36:50;8.63;;;6.22;;
61681;SDS011;47577;43.610;25.010;2022-08-19T05:39:20;8.38;;;6.13;;
61681;SDS011;47577;43.610;25.010;2022-08-19T05:41:47;8.27;;;6.32;;
61681;SDS011;47577;43.610;25.010;2022-08-19T05:44:15;11.32;;;5.47;;
61681;SDS011;47577;43.610;25.010;2022-08-19T05:46:45;7.32;;;5.95;;
61681;SDS011;47577;43.610;25.010;2022-08-19T05:49:12;7.55;;;6.22;;
61681;SDS011;47577;43.610;25.010;2022-08-19T05:51:38;8.38;;;6.47;;
61681;SDS011;47577;43.610;25.010;2022-08-19T05:54:05;7.93;;;6.70;;
61681;SDS011;47577;43.610;25.010;2022-08-19T05:56:31;11.13;;;5.55;;
61681;SDS011;47577;43.610;25.010;2022-08-19T05:58:57;15.82;;;6.20;;
61681;SDS011;47577;43.610;25.010;2022-08-19T06:01:23;12.38;;;6.68;;
61681;SDS011;47577;43.610;25.010;2022-08-19T06:03:51;13.70;;;7.00;;
61681;SDS011;47577;43.610;25.010;2022-08-19T06:06:16;9.95;;;5.60;;
61681;SDS011;47577;43.610;25.010;2022-08-19T06:08:43;14.77;;;6.15;;
61681;SDS011;47577;43.610;25.010;2022-08-19T06:13:47;6.93;;;5.88;;
61681;SDS011;47577;43.610;25.010;2022-08-19T06:16:18;11.40;;;5.72;;
61681;SDS011;47577;43.610;25.010;2022-08-19T06:18:49;11.27;;;5.93;;
61681;SDS011;47577;43.610;25.010;2022-08-19T06:21:20;8.35;;;5.93;;
61681;SDS011;47577;43.610;25.010;2022-08-19T06:23:47;6.53;;;5.75;;
61681;SDS011;47577;43.610;25.010;2022-08-19T06:26:15;9.00;;;7.03;;
61681;SDS011;47577;43.610;25.010;2022-08-19T06:28:40;8.32;;;6.55;;
61681;SDS011;47577;43.610;25.010;2022-08-19T06:31:15;6.20;;;5.60;;
61681;SDS011;47577;43.610;25.010;2022-08-19T06:33:44;9.52;;;6.30;;
61681;SDS011;47577;43.610;25.010;2022-08-19T06:36:20;21.35;;;6.75;;
61681;SDS011;47577;43.610;25.010;2022-08-19T06:41:26;6.60;;;5.50;;
61681;SDS011;47577;43.610;25.010;2022-08-19T06:46:19;8.68;;;6.57;;
61681;SDS011;47577;43.610;25.010;2022-08-19T06:48:46;6.38;;;5.63;;
61681;SDS011;47577;43.610;25.010;2022-08-19T06:51:14;5.65;;;5.00;;
61681;SDS011;47577;43.610;25.010;2022-08-19T06:53:43;7.32;;;5.82;;
61681;SDS011;47577;43.610;25.010;2022-08-19T06:56:13;7.47;;;5.13;;
61681;SDS011;47577;43.610;25.010;2022-08-19T06:58:42;6.22;;;4.97;;
61681;SDS011;47577;43.610;25.010;2022-08-19T07:01:08;8.97;;;5.43;;
61681;SDS011;47577;43.610;25.010;2022-08-19T07:03:35;5.87;;;5.23;;
61681;SDS011;47577;43.610;25.010;2022-08-19T07:06:07;11.05;;;5.03;;
61681;SDS011;47577;43.610;25.010;2022-08-19T07:08:37;9.43;;;5.57;;
61681;SDS011;47577;43.610;25.010;2022-08-19T07:11:10;7.85;;;5.50;;
61681;SDS011;47577;43.610;25.010;2022-08-19T07:13:38;10.07;;;5.75;;
61681;SDS011;47577;43.610;25.010;2022-08-19T07:16:08;7.80;;;5.68;;
61681;SDS011;47577;43.610;25.010;2022-08-19T07:18:36;6.80;;;5.55;;
61681;SDS011;47577;43.610;25.010;2022-08-19T07:21:03;6.70;;;5.43;;
61681;SDS011;47577;43.610;25.010;2022-08-19T07:23:34;5.78;;;5.05;;
61681;SDS011;47577;43.610;25.010;2022-08-19T07:26:11;23.00;;;7.73;;
61681;SDS011;47577;43.610;25.010;2022-08-19T07:28:41;5.53;;;4.80;;
61681;SDS011;47577;43.610;25.010;2022-08-19T07:31:10;9.02;;;5.45;;
61681;SDS011;47577;43.610;25.010;2022-08-19T07:33:38;6.40;;;5.32;;
61681;SDS011;47577;43.610;25.010;2022-08-19T07:36:05;6.88;;;5.75;;
61681;SDS011;47577;43.610;25.010;2022-08-19T07:38:33;6.22;;;5.22;;
61681;SDS011;47577;43.610;25.010;2022-08-19T07:40:59;9.30;;;5.60;;
61681;SDS011;47577;43.610;25.010;2022-08-19T07:43:26;5.90;;;5.30;;
61681;SDS011;47577;43.610;25.010;2022-08-19T07:45:52;10.55;;;5.38;;
61681;SDS011;47577;43.610;25.010;2022-08-19T07:48:22;7.97;;;5.15;;
61681;SDS011;47577;43.610;25.010;2022-08-19T07:50:52;6.63;;;5.18;;
61681;SDS011;47577;43.610;25.010;2022-08-19T07:53:19;6.07;;;5.00;;
61681;SDS011;47577;43.610;25.010;2022-08-19T07:58:12;6.13;;;5.53;;
61681;SDS011;47577;43.610;25.010;2022-08-19T08:00:39;7.63;;;5.75;;
61681;SDS011;47577;43.610;25.010;2022-08-19T08:03:06;11.45;;;5.55;;
61681;SDS011;47577;43.610;25.010;2022-08-19T08:05:33;6.43;;;5.35;;
61681;SDS011;47577;43.610;25.010;2022-08-19T08:08:18;9.15;;;5.20;;
61681;SDS011;47577;43.610;25.010;2022-08-19T08:11:03;8.77;;;5.88;;
61681;SDS011;47577;43.610;25.010;2022-08-19T08:13:30;7.47;;;5.82;;
61681;SDS011;47577;43.610;25.010;2022-08-19T08:15:56;6.30;;;5.67;;
61681;SDS011;47577;43.610;25.010;2022-08-19T08:18:25;7.93;;;5.97;;
61681;SDS011;47577;43.610;25.010;2022-08-19T08:20:51;7.55;;;5.15;;
61681;SDS011;47577;43.610;25.010;2022-08-19T08:23:17;12.53;;;6.30;;
61681;SDS011;47577;43.610;25.010;2022-08-19T08:25:50;8.02;;;4.70;;
61681;SDS011;47577;43.610;25.010;2022-08-19T08:28:20;6.82;;;5.35;;
61681;SDS011;47577;43.610;25.010;2022-08-19T08:30:46;6.37;;;5.17;;
61681;SDS011;47577;43.610;25.010;2022-08-19T08:33:14;5.57;;;4.95;;
61681;SDS011;47577;43.610;25.010;2022-08-19T08:35:44;9.48;;;5.43;;
61681;SDS011;47577;43.610;25.010;2022-08-19T08:40:53;7.75;;;5.65;;
61681;SDS011;47577;43.610;25.010;2022-08-19T08:46:19;6.47;;;4.90;;
61681;SDS011;47577;43.610;25.010;2022-08-19T08:49:24;6.57;;;4.93;;
61681;SDS011;47577;43.610;25.010;2022-08-19T08:51:52;8.00;;;5.28;;
61681;SDS011;47577;43.610;25.010;2022-08-19T08:54:28;6.30;;;4.82;;
61681;SDS011;47577;43.610;25.010;2022-08-19T08:56:58;7.50;;;4.97;;
61681;SDS011;47577;43.610;25.010;2022-08-19T08:59:26;13.27;;;5.03;;
61681;SDS011;47577;43.610;25.010;2022-08-19T09:01:58;7.25;;;5.00;;
61681;SDS011;47577;43.610;25.010;2022-08-19T09:04:24;9.20;;;5.30;;
61681;SDS011;47577;43.610;25.010;2022-08-19T09:07:06;10.63;;;5.32;;
61681;SDS011;47577;43.610;25.010;2022-08-19T09:17:24;7.15;;;4.50;;
61681;SDS011;47577;43.610;25.010;2022-08-19T09:22:48;5.50;;;4.30;;
61681;SDS011;47577;43.610;25.010;2022-08-19T09:25:18;6.03;;;4.90;;
61681;SDS011;47577;43.610;25.010;2022-08-19T09:27:47;11.05;;;5.07;;
61681;SDS011;47577;43.610;25.010;2022-08-19T09:30:24;7.47;;;4.85;;
61681;SDS011;47577;43.610;25.010;2022-08-19T09:32:52;7.20;;;4.57;;
61681;SDS011;47577;43.610;25.010;2022-08-19T09:37:47;7.30;;;4.25;;
61681;SDS011;47577;43.610;25.010;2022-08-19T09:40:14;7.70;;;4.53;;
61681;SDS011;47577;43.610;25.010;2022-08-19T09:42:40;6.05;;;5.45;;
61681;SDS011;47577;43.610;25.010;2022-08-19T09:45:08;5.70;;;4.75;;
61681;SDS011;47577;43.610;25.010;2022-08-19T09:47:35;8.10;;;4.20;;
61681;SDS011;47577;43.610;25.010;2022-08-19T09:50:04;5.47;;;4.72;;
61681;SDS011;47577;43.610;25.010;2022-08-19T09:52:34;5.78;;;4.90;;
61681;SDS011;47577;43.610;25.010;2022-08-19T09:55:05;6.70;;;5.10;;
61681;SDS011;47577;43.610;25.010;2022-08-19T09:57:32;5.88;;;5.15;;
61681;SDS011;47577;43.610;25.010;2022-08-19T09:59:58;7.07;;;4.47;;
61681;SDS011;47577;43.610;25.010;2022-08-19T10:02:24;5.75;;;5.15;;
61681;SDS011;47577;43.610;25.010;2022-08-19T10:04:50;7.40;;;5.10;;
61681;SDS011;47577;43.610;25.010;2022-08-19T10:07:34;7.80;;;4.97;;
61681;SDS011;47577;43.610;25.010;2022-08-19T10:10:00;9.23;;;5.15;;
61681;SDS011;47577;43.610;25.010;2022-08-19T10:12:26;7.63;;;5.22;;
61681;SDS011;47577;43.610;25.010;2022-08-19T10:14:52;13.63;;;5.63;;
61681;SDS011;47577;43.610;25.010;2022-08-19T10:17:19;5.57;;;4.95;;
61681;SDS011;47577;43.610;25.010;2022-08-19T10:19:45;8.82;;;4.88;;
61681;SDS011;47577;43.610;25.010;2022-08-19T10:22:11;6.47;;;4.88;;
61681;SDS011;47577;43.610;25.010;2022-08-19T10:24:39;6.18;;;4.43;;
61681;SDS011;47577;43.610;25.010;2022-08-19T10:27:06;5.35;;;4.80;;
61681;SDS011;47577;43.610;25.010;2022-08-19T10:29:32;6.05;;;4.88;;
61681;SDS011;47577;43.610;25.010;2022-08-19T10:32:00;5.28;;;4.63;;
61681;SDS011;47577;43.610;25.010;2022-08-19T10:34:28;8.30;;;5.32;;
61681;SDS011;47577;43.610;25.010;2022-08-19T10:36:54;5.78;;;4.88;;
61681;SDS011;47577;43.610;25.010;2022-08-19T10:39:21;5.53;;;4.93;;
61681;SDS011;47577;43.610;25.010;2022-08-19T10:41:47;7.57;;;5.22;;
61681;SDS011;47577;43.610;25.010;2022-08-19T10:44:13;7.00;;;5.10;;
61681;SDS011;47577;43.610;25.010;2022-08-19T10:46:40;9.25;;;4.85;;
61681;SDS011;47577;43.610;25.010;2022-08-19T10:49:07;5.43;;;4.82;;
61681;SDS011;47577;43.610;25.010;2022-08-19T10:51:34;8.25;;;4.75;;
61681;SDS011;47577;43.610;25.010;2022-08-19T10:54:18;4.72;;;4.30;;
61681;SDS011;47577;43.610;25.010;2022-08-19T10:59:17;8.57;;;5.22;;
61681;SDS011;47577;43.610;25.010;2022-08-19T11:01:47;6.13;;;4.78;;
61681;SDS011;47577;43.610;25.010;2022-08-19T11:04:13;8.18;;;4.78;;
61681;SDS011;47577;43.610;25.010;2022-08-19T11:06:42;8.05;;;4.50;;
61681;SDS011;47577;43.610;25.010;2022-08-19T11:09:20;7.75;;;5.32;;
61681;SDS011;47577;43.610;25.010;2022-08-19T11:11:51;8.68;;;5.20;;
61681;SDS011;47577;43.610;25.010;2022-08-19T11:14:18;6.88;;;4.63;;
61681;SDS011;47577;43.610;25.010;2022-08-19T11:16:45;16.58;;;5.22;;
61681;SDS011;47577;43.610;25.010;2022-08-19T11:19:14;6.88;;;4.38;;
61681;SDS011;47577;43.610;25.010;2022-08-19T11:21:45;7.07;;;4.97;;
61681;SDS011;47577;43.610;25.010;2022-08-19T11:24:14;8.25;;;5.20;;
61681;SDS011;47577;43.610;25.010;2022-08-19T11:26:45;6.90;;;4.60;;
61681;SDS011;47577;43.610;25.010;2022-08-19T11:29:14;6.60;;;5.38;;
61681;SDS011;47577;43.610;25.010;2022-08-19T11:34:08;5.25;;;4.45;;
61681;SDS011;47577;43.610;25.010;2022-08-19T11:36:38;4.97;;;4.30;;
61681;SDS011;47577;43.610;25.010;2022-08-19T11:39:06;6.38;;;4.43;;
61681;SDS011;47577;43.610;25.010;2022-08-19T11:41:33;5.60;;;5.10;;
61681;SDS011;47577;43.610;25.010;2022-08-19T11:43:59;10.90;;;4.88;;
61681;SDS011;47577;43.610;25.010;2022-08-19T11:46:25;12.05;;;5.32;;
61681;SDS011;47577;43.610;25.010;2022-08-19T11:48:55;7.03;;;4.72;;
61681;SDS011;47577;43.610;25.010;2022-08-19T11:51:22;7.18;;;5.28;;
61681;SDS011;47577;43.610;25.010;2022-08-19T11:53:52;6.20;;;5.28;;
61681;SDS011;47577;43.610;25.010;2022-08-19T11:56:20;8.25;;;5.03;;
61681;SDS011;47577;43.610;25.010;2022-08-19T11:58:47;8.18;;;4.78;;
61681;SDS011;47577;43.610;25.010;2022-08-19T12:01:14;8.13;;;4.53;;
61681;SDS011;47577;43.610;25.010;2022-08-19T12:03:42;7.75;;;5.15;;
61681;SDS011;47577;43.610;25.010;2022-08-19T12:06:11;7.80;;;4.75;;
61681;SDS011;47577;43.610;25.010;2022-08-19T12:08:39;10.93;;;4.40;;
61681;SDS011;47577;43.610;25.010;2022-08-19T12:11:05;4.75;;;4.22;;
61681;SDS011;47577;43.610;25.010;2022-08-19T12:13:33;8.70;;;4.80;;
61681;SDS011;47577;43.610;25.010;2022-08-19T12:15:59;9.68;;;4.45;;
61681;SDS011;47577;43.610;25.010;2022-08-19T12:18:25;7.15;;;4.03;;
61681;SDS011;47577;43.610;25.010;2022-08-19T12:20:52;11.40;;;4.15;;
61681;SDS011;47577;43.610;25.010;2022-08-19T12:23:21;5.68;;;4.20;;
61681;SDS011;47577;43.610;25.010;2022-08-19T12:28:18;8.52;;;4.47;;
61681;SDS011;47577;43.610;25.010;2022-08-19T12:30:46;11.38;;;4.50;;
61681;SDS011;47577;43.610;25.010;2022-08-19T12:33:12;4.88;;;3.92;;
61681;SDS011;47577;43.610;25.010;2022-08-19T12:35:42;6.68;;;4.20;;
61681;SDS011;47577;43.610;25.010;2022-08-19T12:38:12;14.52;;;4.93;;
61681;SDS011;47577;43.610;25.010;2022-08-19T12:40:38;14.35;;;4.80;;
61681;SDS011;47577;43.610;25.010;2022-08-19T12:43:05;8.13;;;4.60;;
61681;SDS011;47577;43.610;25.010;2022-08-19T12:45:32;7.50;;;4.43;;
61681;SDS011;47577;43.610;25.010;2022-08-19T12:47:58;5.30;;;4.55;;
61681;SDS011;47577;43.610;25.010;2022-08-19T12:50:24;6.55;;;4.55;;
61681;SDS011;47577;43.610;25.010;2022-08-19T12:52:49;6.97;;;4.93;;
61681;SDS011;47577;43.610;25.010;2022-08-19T12:55:15;7.78;;;4.65;;
61681;SDS011;47577;43.610;25.010;2022-08-19T12:57:43;7.65;;;4.20;;
61681;SDS011;47577;43.610;25.010;2022-08-19T13:02:38;11.07;;;5.07;;
61681;SDS011;47577;43.610;25.010;2022-08-19T13:05:07;7.70;;;4.60;;
61681;SDS011;47577;43.610;25.010;2022-08-19T13:07:34;6.15;;;4.15;;
61681;SDS011;47577;43.610;25.010;2022-08-19T13:10:00;6.03;;;4.63;;
61681;SDS011;47577;43.610;25.010;2022-08-19T13:12:26;5.18;;;4.68;;
61681;SDS011;47577;43.610;25.010;2022-08-19T13:14:52;6.55;;;4.47;;
61681;SDS011;47577;43.610;25.010;2022-08-19T13:17:19;5.30;;;4.47;;
61681;SDS011;47577;43.610;25.010;2022-08-19T13:19:45;5.03;;;4.53;;
61681;SDS011;47577;43.610;25.010;2022-08-19T13:22:11;7.72;;;4.65;;
61681;SDS011;47577;43.610;25.010;2022-08-19T13:24:37;7.90;;;4.88;;
61681;SDS011;47577;43.610;25.010;2022-08-19T13:27:03;7.15;;;5.07;;
61681;SDS011;47577;43.610;25.010;2022-08-19T13:29:29;6.05;;;4.40;;
61681;SDS011;47577;43.610;25.010;2022-08-19T13:32:13;5.40;;;4.47;;
61681;SDS011;47577;43.610;25.010;2022-08-19T13:34:57;4.63;;;4.20;;
61681;SDS011;47577;43.610;25.010;2022-08-19T13:37:22;14.60;;;4.90;;
61681;SDS011;47577;43.610;25.010;2022-08-19T13:40:16;7.47;;;4.03;;
61681;SDS011;47577;43.610;25.010;2022-08-19T13:42:44;6.53;;;4.65;;
61681;SDS011;47577;43.610;25.010;2022-08-19T13:45:13;7.38;;;4.68;;
61681;SDS011;47577;43.610;25.010;2022-08-19T13:47:40;8.73;;;3.97;;
61681;SDS011;47577;43.610;25.010;2022-08-19T13:50:13;8.65;;;5.00;;
61681;SDS011;47577;43.610;25.010;2022-08-19T13:52:41;6.95;;;4.78;;
61681;SDS011;47577;43.610;25.010;2022-08-19T13:57:33;9.18;;;4.68;;
61681;SDS011;47577;43.610;25.010;2022-08-19T13:59:59;4.82;;;4.32;;
61681;SDS011;47577;43.610;25.010;2022-08-19T14:02:26;5.82;;;4.47;;
61681;SDS011;47577;43.610;25.010;2022-08-19T14:04:52;5.90;;;5.03;;
61681;SDS011;47577;43.610;25.010;2022-08-19T14:09:43;7.68;;;4.25;;
61681;SDS011;47577;43.610;25.010;2022-08-19T14:12:09;8.63;;;4.45;;
61681;SDS011;47577;43.610;25.010;2022-08-19T14:14:38;4.93;;;4.38;;
61681;SDS011;47577;43.610;25.010;2022-08-19T14:17:07;5.07;;;4.03;;
61681;SDS011;47577;43.610;25.010;2022-08-19T14:19:34;6.75;;;4.43;;
61681;SDS011;47577;43.610;25.010;2022-08-19T14:22:00;7.88;;;3.90;;
61681;SDS011;47577;43.610;25.010;2022-08-19T14:24:26;7.03;;;4.53;;
61681;SDS011;47577;43.610;25.010;2022-08-19T14:26:52;6.00;;;3.95;;
61681;SDS011;47577;43.610;25.010;2022-08-19T14:29:17;4.93;;;3.70;;
61681;SDS011;47577;43.610;25.010;2022-08-19T14:34:09;9.02;;;4.20;;
61681;SDS011;47577;43.610;25.010;2022-08-19T14:36:39;4.97;;;4.10;;
61681;SDS011;47577;43.610;25.010;2022-08-19T14:39:04;4.95;;;3.83;;
61681;SDS011;47577;43.610;25.010;2022-08-19T14:41:30;11.23;;;4.00;;
61681;SDS011;47577;43.610;25.010;2022-08-19T14:43:56;10.15;;;4.40;;
61681;SDS011;47577;43.610;25.010;2022-08-19T14:48:50;7.82;;;3.63;;
61681;SDS011;47577;43.610;25.010;2022-08-19T14:51:16;7.72;;;4.25;;
61681;SDS011;47577;43.610;25.010;2022-08-19T14:53:44;5.53;;;3.45;;
61681;SDS011;47577;43.610;25.010;2022-08-19T14:58:37;5.35;;;4.03;;
61681;SDS011;47577;43.610;25.010;2022-08-19T15:01:05;7.13;;;4.25;;
61681;SDS011;47577;43.610;25.010;2022-08-19T15:03:32;6.90;;;3.92;;
61681;SDS011;47577;43.610;25.010;2022-08-19T15:05:58;7.10;;;4.22;;
61681;SDS011;47577;43.610;25.010;2022-08-19T15:08:25;8.65;;;3.90;;
61681;SDS011;47577;43.610;25.010;2022-08-19T15:10:52;4.03;;;3.72;;
61681;SDS011;47577;43.610;25.010;2022-08-19T15:13:18;8.52;;;3.97;;
61681;SDS011;47577;43.610;25.010;2022-08-19T15:15:44;6.35;;;4.25;;
61681;SDS011;47577;43.610;25.010;2022-08-19T15:20:36;11.60;;;4.35;;
61681;SDS011;47577;43.610;25.010;2022-08-19T15:23:03;6.45;;;3.63;;
61681;SDS011;47577;43.610;25.010;2022-08-19T15:25:29;4.93;;;3.97;;
61681;SDS011;47577;43.610;25.010;2022-08-19T15:27:54;4.00;;;3.60;;
61681;SDS011;47577;43.610;25.010;2022-08-19T15:30:21;8.02;;;4.13;;
61681;SDS011;47577;43.610;25.010;2022-08-19T15:32:50;4.25;;;3.80;;
61681;SDS011;47577;43.610;25.010;2022-08-19T15:35:17;5.78;;;3.90;;
61681;SDS011;47577;43.610;25.010;2022-08-19T15:37:45;5.18;;;4.07;;
61681;SDS011;47577;43.610;25.010;2022-08-19T15:40:13;7.20;;;4.03;;